createdAt,value
2022-10-17T00:02:03.727Z,17.80
2022-10-17T00:06:11.242Z,17.80
2022-10-17T00:14:30.728Z,17.70
2022-10-17T00:22:49.209Z,18.10
2022-10-17T00:26:51.106Z,17.70
2022-10-17T00:30:57.854Z,17.60
2022-10-17T00:35:00.026Z,17.70
2022-10-17T00:39:02.023Z,17.60
2022-10-17T00:43:03.881Z,17.30
2022-10-17T00:47:24.309Z,17.40
2022-10-17T00:51:34.819Z,17.40
2022-10-17T00:55:50.813Z,17.30
2022-10-17T00:59:56.131Z,17.30
2022-10-17T01:04:07.182Z,17.50
2022-10-17T01:08:09.667Z,17.00
2022-10-17T01:12:38.782Z,17.30
2022-10-17T01:16:58.185Z,17.30
2022-10-17T01:21:06.288Z,17.50
2022-10-17T01:25:17.573Z,17.10
2022-10-17T01:29:22.713Z,16.70
2022-10-17T01:34:05.009Z,17.20
2022-10-17T01:38:15.978Z,17.60
2022-10-17T01:42:59.032Z,17.30
2022-10-17T01:47:18.071Z,17.00
2022-10-17T01:51:28.024Z,17.30
2022-10-17T01:55:37.918Z,17.20
2022-10-17T01:59:45.070Z,17.20
2022-10-17T02:03:51.449Z,17.10
2022-10-17T02:07:53.898Z,17.10
2022-10-17T02:12:34.017Z,17.40
2022-10-17T02:17:02.603Z,17.10
2022-10-17T02:21:15.829Z,17.00
2022-10-17T02:25:58.659Z,17.00
2022-10-17T02:30:10.638Z,17.00
2022-10-17T02:34:28.129Z,16.40
2022-10-17T02:38:32.684Z,16.10
2022-10-17T02:42:36.197Z,16.20
2022-10-17T02:46:49.828Z,16.20
2022-10-17T02:51:19.578Z,16.20
2022-10-17T02:55:30.303Z,16.20
2022-10-17T02:59:36.111Z,16.20
2022-10-17T03:03:41.291Z,16.60
2022-10-17T03:07:48.324Z,16.80
2022-10-17T03:11:51.352Z,16.90
2022-10-17T03:15:53.518Z,17.00
2022-10-17T03:19:55.652Z,17.10
2022-10-17T03:24:00.361Z,16.80
2022-10-17T03:28:07.476Z,16.80
2022-10-17T03:32:13.094Z,16.70
2022-10-17T03:36:17.362Z,16.60
2022-10-17T03:40:19.697Z,16.60
2022-10-17T03:44:25.364Z,16.40
2022-10-17T03:48:29.017Z,16.30
2022-10-17T03:52:31.951Z,16.50
2022-10-17T03:56:33.866Z,16.40
2022-10-17T04:00:41.477Z,16.30
2022-10-17T04:04:45.827Z,16.40
2022-10-17T04:08:48.003Z,16.20
2022-10-17T04:12:54.004Z,16.10
2022-10-17T04:16:56.124Z,16.00
2022-10-17T04:21:10.767Z,16.30
2022-10-17T04:25:12.609Z,16.00
2022-10-17T04:29:15.268Z,16.00
2022-10-17T04:33:18.913Z,16.40
2022-10-17T04:37:20.752Z,16.20
2022-10-17T04:41:26.491Z,16.00
2022-10-17T04:45:28.182Z,16.00
2022-10-17T04:49:30.005Z,15.90
2022-10-17T04:53:33.959Z,16.20
2022-10-17T04:57:36.170Z,15.70
2022-10-17T05:01:41.438Z,15.90
2022-10-17T05:05:43.651Z,16.00
2022-10-17T05:09:45.524Z,15.40
2022-10-17T05:13:58.485Z,15.50
2022-10-17T05:18:00.197Z,15.50
2022-10-17T05:22:03.867Z,15.50
2022-10-17T05:26:05.636Z,15.40
2022-10-17T05:30:08.176Z,15.50
2022-10-17T05:34:13.064Z,15.50
2022-10-17T05:38:15.781Z,15.80
2022-10-17T05:42:25.044Z,15.90
2022-10-17T05:46:27.200Z,16.40
2022-10-17T05:50:28.971Z,15.90
2022-10-17T05:54:30.770Z,15.70
2022-10-17T05:58:52.402Z,15.40
2022-10-17T06:02:56.094Z,15.40
2022-10-17T06:06:57.898Z,15.70
2022-10-17T06:11:00.767Z,15.70
2022-10-17T06:15:02.467Z,15.90
2022-10-17T06:19:04.279Z,16.10
2022-10-17T06:23:06.523Z,15.70
2022-10-17T06:27:11.801Z,15.70
2022-10-17T06:31:16.682Z,16.10
2022-10-17T06:35:22.681Z,15.60
2022-10-17T06:39:26.929Z,16.10
2022-10-17T06:43:28.611Z,16.30
2022-10-17T06:47:30.673Z,16.10
2022-10-17T06:51:38.341Z,16.20
2022-10-17T06:55:40.048Z,16.60
2022-10-17T06:59:41.710Z,16.60
2022-10-17T07:03:50.277Z,16.50
2022-10-17T07:07:52.150Z,16.50
2022-10-17T07:11:53.971Z,16.50
2022-10-17T07:16:01.911Z,16.20
2022-10-17T07:20:04.556Z,16.70
2022-10-17T07:24:07.627Z,16.50
2022-10-17T07:28:09.327Z,16.50
2022-10-17T07:32:11.006Z,16.80
2022-10-17T07:36:13.612Z,17.10
2022-10-17T07:40:15.352Z,16.70
2022-10-17T07:44:17.143Z,16.70
2022-10-17T07:48:19.554Z,17.20
2022-10-17T07:52:25.451Z,17.40
2022-10-17T07:56:27.262Z,17.50
2022-10-17T08:00:29.140Z,17.70
2022-10-17T08:04:31.650Z,17.60
2022-10-17T08:08:35.858Z,17.90
2022-10-17T08:12:39.139Z,17.80
2022-10-17T08:16:41.327Z,18.30
2022-10-17T08:20:43.163Z,18.40
2022-10-17T08:24:46.248Z,18.20
2022-10-17T08:28:48.443Z,18.10
2022-10-17T08:32:50.388Z,18.40
2022-10-17T08:36:52.152Z,18.80
2022-10-17T08:40:55.966Z,18.60
2022-10-17T08:45:16.082Z,18.80
2022-10-17T08:50:07.951Z,18.80
2022-10-17T08:54:18.987Z,18.60
2022-10-17T08:58:27.752Z,18.90
2022-10-17T09:02:57.231Z,18.90
2022-10-17T09:07:43.582Z,19.10
2022-10-17T09:12:06.359Z,19.20
2022-10-17T09:16:30.893Z,19.30
2022-10-17T09:20:37.002Z,19.30
2022-10-17T09:24:44.942Z,19.80
2022-10-17T09:29:00.059Z,19.20
2022-10-17T09:33:12.664Z,19.60
2022-10-17T09:37:19.479Z,20.00
2022-10-17T09:41:47.333Z,19.80
2022-10-17T09:45:59.189Z,19.70
2022-10-17T09:50:02.201Z,20.10
2022-10-17T09:54:11.213Z,19.70
2022-10-17T09:58:15.108Z,20.00
2022-10-17T10:02:20.327Z,20.20
2022-10-17T10:06:22.066Z,20.10
2022-10-17T10:10:28.639Z,20.20
2022-10-17T10:14:33.754Z,20.40
2022-10-17T10:18:36.775Z,20.30
2022-10-17T10:22:39.403Z,20.40
2022-10-17T10:26:49.766Z,20.60
2022-10-17T10:30:52.413Z,20.60
2022-10-17T10:34:59.349Z,20.80
2022-10-17T10:39:26.893Z,20.80
2022-10-17T10:43:42.281Z,21.00
2022-10-17T10:48:06.344Z,21.10
2022-10-17T10:52:11.768Z,21.00
2022-10-17T10:56:17.106Z,20.80
2022-10-17T11:00:24.742Z,21.00
2022-10-17T11:04:44.262Z,20.70
2022-10-17T11:09:14.057Z,20.60
2022-10-17T11:13:31.802Z,20.80
2022-10-17T11:17:45.706Z,21.40
2022-10-17T11:21:56.938Z,21.40
2022-10-17T11:26:02.726Z,21.60
2022-10-17T11:30:05.838Z,21.70
2022-10-17T11:34:42.455Z,21.30
2022-10-17T11:39:06.263Z,21.50
2022-10-17T11:43:17.685Z,21.50
2022-10-17T11:47:43.157Z,21.60
2022-10-17T11:56:41.818Z,21.50
2022-10-17T12:00:54.414Z,21.80
2022-10-17T12:05:20.657Z,22.20
2022-10-17T12:09:49.108Z,22.00
2022-10-17T12:13:53.668Z,22.30
2022-10-17T12:17:56.520Z,22.10
2022-10-17T12:22:23.466Z,22.40
2022-10-17T12:26:30.936Z,22.50
2022-10-17T12:30:34.323Z,22.70
2022-10-17T12:34:40.687Z,22.80
2022-10-17T12:38:50.409Z,23.00
2022-10-17T12:42:52.546Z,22.90
2022-10-17T12:47:10.169Z,23.10
2022-10-17T12:55:36.363Z,23.10
2022-10-17T12:59:39.076Z,23.30
2022-10-17T13:03:56.106Z,23.30
2022-10-17T13:08:00.341Z,23.20
2022-10-17T13:12:14.458Z,23.40
2022-10-17T13:16:36.517Z,23.30
2022-10-17T13:20:39.382Z,23.10
2022-10-17T13:24:43.878Z,23.30
2022-10-17T13:29:00.570Z,23.20
2022-10-17T13:33:03.449Z,23.40
2022-10-17T13:37:23.132Z,23.40
2022-10-17T13:41:35.992Z,23.40
2022-10-17T13:45:45.581Z,23.70
2022-10-17T13:49:49.507Z,23.60
2022-10-17T13:53:53.871Z,23.80
2022-10-17T13:57:55.616Z,23.90
2022-10-17T14:01:57.606Z,23.70
2022-10-17T14:06:12.885Z,23.70
2022-10-17T14:10:27.535Z,23.60
2022-10-17T14:14:30.418Z,23.70
2022-10-17T14:18:37.818Z,23.90
2022-10-17T14:23:04.446Z,23.80
2022-10-17T14:28:02.635Z,23.90
2022-10-17T14:32:08.587Z,24.00
2022-10-17T14:36:14.440Z,24.10
2022-10-17T14:40:25.204Z,24.10
2022-10-17T14:44:31.078Z,24.00
2022-10-17T14:48:33.459Z,24.20
2022-10-17T14:52:45.405Z,24.10
2022-10-17T14:56:53.533Z,24.20
2022-10-17T15:01:03.806Z,24.20
2022-10-17T15:05:08.369Z,24.40
2022-10-17T15:09:14.237Z,24.50
2022-10-17T15:13:27.710Z,24.40
2022-10-17T15:17:31.445Z,24.40
2022-10-17T15:21:40.577Z,24.40
2022-10-17T15:25:45.063Z,24.30
2022-10-17T15:29:47.138Z,24.30
2022-10-17T15:33:49.079Z,24.30
2022-10-17T15:37:51.144Z,24.30
2022-10-17T15:41:52.911Z,24.20
2022-10-17T15:45:54.738Z,24.00
2022-10-17T15:50:00.977Z,23.90
2022-10-17T15:54:02.839Z,23.80
2022-10-17T15:58:04.836Z,23.60
2022-10-17T16:02:14.380Z,23.60
2022-10-17T16:06:17.797Z,23.30
2022-10-17T16:10:20.200Z,23.20
2022-10-17T16:14:21.896Z,23.20
2022-10-17T16:18:23.789Z,23.20
2022-10-17T16:22:32.753Z,23.20
2022-10-17T16:26:34.884Z,23.10
2022-10-17T16:30:46.119Z,23.20
2022-10-17T16:34:47.876Z,22.90
2022-10-17T16:38:52.750Z,22.80
2022-10-17T16:42:54.448Z,22.60
2022-10-17T16:46:56.111Z,22.60
2022-10-17T16:50:58.101Z,22.40
2022-10-17T16:54:59.784Z,22.40
2022-10-17T16:59:07.899Z,22.20
2022-10-17T17:03:09.592Z,22.00
2022-10-17T17:07:11.494Z,22.10
2022-10-17T17:11:16.016Z,21.40
2022-10-17T17:15:17.849Z,21.50
2022-10-17T17:19:20.927Z,21.50
2022-10-17T17:23:22.654Z,21.40
2022-10-17T17:27:26.823Z,21.30
2022-10-17T17:31:30.890Z,21.30
2022-10-17T17:35:32.685Z,21.30
2022-10-17T17:39:35.385Z,20.80
2022-10-17T17:43:37.115Z,20.90
2022-10-17T17:47:38.917Z,20.90
2022-10-17T17:51:41.829Z,20.90
2022-10-17T17:55:43.687Z,21.00
2022-10-17T17:59:45.626Z,21.00
2022-10-17T18:03:49.267Z,21.00
2022-10-17T18:07:51.235Z,20.60
2022-10-17T18:11:53.502Z,20.40
2022-10-17T18:16:00.648Z,20.20
2022-10-17T18:20:03.496Z,20.70
2022-10-17T18:24:05.627Z,20.70
2022-10-17T18:28:08.979Z,20.80
2022-10-17T18:32:10.747Z,21.00
2022-10-17T18:36:15.060Z,20.80
2022-10-17T18:40:16.773Z,20.80
2022-10-17T18:44:20.346Z,20.80
2022-10-17T18:48:32.326Z,20.70
2022-10-17T18:52:34.116Z,20.50
2022-10-17T18:56:35.826Z,20.60
2022-10-17T19:00:37.526Z,20.50
2022-10-17T19:04:42.745Z,20.60
2022-10-17T19:08:45.170Z,20.50
2022-10-17T19:12:46.900Z,20.50
2022-10-17T19:16:50.819Z,20.50
2022-10-17T19:20:53.079Z,20.40
2022-10-17T19:24:55.645Z,20.30
2022-10-17T19:28:57.678Z,20.50
2022-10-17T19:32:59.487Z,20.50
2022-10-17T19:37:01.428Z,20.30
2022-10-17T19:41:08.255Z,20.20
2022-10-17T19:45:10.367Z,20.00
2022-10-17T19:49:12.774Z,19.80
2022-10-17T19:53:14.655Z,20.00
2022-10-17T19:57:16.636Z,19.70
2022-10-17T20:01:30.013Z,19.50
2022-10-17T20:05:31.821Z,19.60
2022-10-17T20:09:33.494Z,19.80
2022-10-17T20:13:36.646Z,19.70
2022-10-17T20:17:39.510Z,19.50
2022-10-17T20:21:43.039Z,18.60
2022-10-17T20:25:46.249Z,18.90
2022-10-17T20:29:48.051Z,19.50
2022-10-17T20:33:58.062Z,18.90
2022-10-17T20:37:59.982Z,19.10
2022-10-17T20:42:01.759Z,19.70
2022-10-17T20:46:21.912Z,19.60
2022-10-17T20:50:24.869Z,19.50
2022-10-17T20:54:28.375Z,19.80
2022-10-17T20:58:30.218Z,19.50
2022-10-17T21:02:34.347Z,19.60
2022-10-17T21:06:37.996Z,19.40
2022-10-17T21:10:39.683Z,19.40
2022-10-17T21:14:41.456Z,19.70
2022-10-17T21:18:43.888Z,19.60
2022-10-17T21:22:45.609Z,19.30
2022-10-17T21:26:50.236Z,19.40
2022-10-17T21:30:51.902Z,19.20
2022-10-17T21:34:53.715Z,19.50
2022-10-17T21:38:57.276Z,18.90
2022-10-17T21:42:59.059Z,18.70
2022-10-17T21:47:02.403Z,18.50
2022-10-17T21:51:06.520Z,18.90
2022-10-17T21:55:08.458Z,18.60
2022-10-17T21:59:11.015Z,18.50
2022-10-17T22:03:15.193Z,18.30
2022-10-17T22:07:16.951Z,18.70
2022-10-17T22:11:22.154Z,18.60
2022-10-17T22:15:24.665Z,18.90
2022-10-17T22:19:27.360Z,18.90
2022-10-17T22:23:29.093Z,18.90
2022-10-17T22:27:31.071Z,18.60
2022-10-17T22:31:33.654Z,19.00
2022-10-17T22:35:35.354Z,18.70
2022-10-17T22:39:38.650Z,18.70
2022-10-17T22:43:40.443Z,18.70
2022-10-17T22:47:45.722Z,18.50
2022-10-17T22:51:56.708Z,18.40
2022-10-17T22:56:04.430Z,18.40
2022-10-17T23:00:08.525Z,18.40
2022-10-17T23:04:10.228Z,18.20
2022-10-17T23:08:12.691Z,18.20
2022-10-17T23:12:14.396Z,18.30
2022-10-17T23:16:16.079Z,18.10
2022-10-17T23:20:17.870Z,18.10
2022-10-17T23:24:19.555Z,18.50
2022-10-17T23:28:21.439Z,18.30
2022-10-17T23:32:24.356Z,17.90
2022-10-17T23:36:28.363Z,17.90
2022-10-17T23:40:30.499Z,17.80
2022-10-17T23:44:32.214Z,17.80
2022-10-17T23:48:34.421Z,18.30
2022-10-17T23:52:36.352Z,17.90
2022-10-17T23:56:38.041Z,18.00
